sensor_id;sensor_type;location;lat;lon;timestamp;pressure;altitude;pressure_sealevel;temperature;humidity
69247;BME280;56358;56.328;43.992;2022-07-29T00:00:32;100315.09;;;20.96;55.80
69247;BME280;56358;56.328;43.992;2022-07-29T00:02:33;100375.91;;;21.33;57.04
69247;BME280;56358;56.328;43.992;2022-07-29T00:04:35;100392.34;;;21.39;56.84
69247;BME280;56358;56.328;43.992;2022-07-29T00:06:36;100301.72;;;20.79;57.26
69247;BME280;56358;56.328;43.992;2022-07-29T00:08:36;100364.97;;;21.11;57.25
69247;BME280;56358;56.328;43.992;2022-07-29T00:10:37;100380.53;;;21.17;57.87
69247;BME280;56358;56.328;43.992;2022-07-29T00:12:41;100318.13;;;20.71;58.12
69247;BME280;56358;56.328;43.992;2022-07-29T00:14:42;100404.34;;;21.08;58.21
69247;BME280;56358;56.328;43.992;2022-07-29T00:16:43;100313.34;;;20.58;58.46
69247;BME280;56358;56.328;43.992;2022-07-29T00:18:43;100368.84;;;20.87;58.45
69247;BME280;56358;56.328;43.992;2022-07-29T00:20:44;100373.06;;;20.89;58.91
69247;BME280;56358;56.328;43.992;2022-07-29T00:22:45;100365.94;;;20.73;58.95
69247;BME280;56358;56.328;43.992;2022-07-29T00:24:48;100315.91;;;20.45;60.04
69247;BME280;56358;56.328;43.992;2022-07-29T00:26:49;100348.56;;;20.59;61.44
69247;BME280;56358;56.328;43.992;2022-07-29T00:28:50;100359.00;;;20.71;62.33
69247;BME280;56358;56.328;43.992;2022-07-29T00:30:55;100369.53;;;20.74;62.91
69247;BME280;56358;56.328;43.992;2022-07-29T00:32:56;100342.91;;;20.61;63.44
69247;BME280;56358;56.328;43.992;2022-07-29T00:34:57;100305.56;;;20.40;63.42
69247;BME280;56358;56.328;43.992;2022-07-29T00:37:16;100364.91;;;20.74;63.00
69247;BME280;56358;56.328;43.992;2022-07-29T00:39:17;100374.41;;;20.79;63.23
69247;BME280;56358;56.328;43.992;2022-07-29T00:41:20;100348.84;;;20.50;62.04
69247;BME280;56358;56.328;43.992;2022-07-29T00:43:21;100371.66;;;20.64;61.92
69247;BME280;56358;56.328;43.992;2022-07-29T00:45:22;100300.41;;;20.15;61.94
69247;BME280;56358;56.328;43.992;2022-07-29T00:47:22;100335.97;;;20.29;61.23
69247;BME280;56358;56.328;43.992;2022-07-29T00:49:23;100365.09;;;20.58;61.42
69247;BME280;56358;56.328;43.992;2022-07-29T00:51:25;100369.13;;;20.47;61.00
69247;BME280;56358;56.328;43.992;2022-07-29T00:53:30;100357.03;;;20.35;62.05
69247;BME280;56358;56.328;43.992;2022-07-29T00:55:31;100324.22;;;20.13;62.28
69247;BME280;56358;56.328;43.992;2022-07-29T00:57:33;100373.81;;;20.38;63.33
69247;BME280;56358;56.328;43.992;2022-07-29T00:59:35;100357.47;;;20.38;63.85
69247;BME280;56358;56.328;43.992;2022-07-29T01:01:35;100349.13;;;20.40;64.25
69247;BME280;56358;56.328;43.992;2022-07-29T01:03:36;100361.22;;;20.37;64.54
69247;BME280;56358;56.328;43.992;2022-07-29T01:05:37;100372.50;;;20.34;64.56
69247;BME280;56358;56.328;43.992;2022-07-29T01:07:39;100362.91;;;20.23;64.75
69247;BME280;56358;56.328;43.992;2022-07-29T01:09:40;100369.19;;;20.24;64.48
69247;BME280;56358;56.328;43.992;2022-07-29T01:11:43;100235.06;;;19.32;64.90
69247;BME280;56358;56.328;43.992;2022-07-29T01:13:47;100361.75;;;20.03;65.50
69247;BME280;56358;56.328;43.992;2022-07-29T01:16:04;100265.25;;;19.37;66.22
69247;BME280;56358;56.328;43.992;2022-07-29T01:18:14;100370.84;;;19.95;66.47
69247;BME280;56358;56.328;43.992;2022-07-29T01:27:11;100349.34;;;19.77;65.65
69247;BME280;56358;56.328;43.992;2022-07-29T01:29:32;100354.81;;;19.77;65.66
69247;BME280;56358;56.328;43.992;2022-07-29T01:33:48;100343.28;;;19.75;65.51
69247;BME280;56358;56.328;43.992;2022-07-29T01:35:51;100366.81;;;19.91;66.36
69247;BME280;56358;56.328;43.992;2022-07-29T01:38:04;100348.53;;;19.76;67.15
69247;BME280;56358;56.328;43.992;2022-07-29T01:40:33;100362.50;;;19.97;66.79
69247;BME280;56358;56.328;43.992;2022-07-29T01:42:35;100366.53;;;20.01;66.47
69247;BME280;56358;56.328;43.992;2022-07-29T01:44:48;100368.94;;;19.96;66.42
69247;BME280;56358;56.328;43.992;2022-07-29T01:46:58;100366.63;;;19.92;66.49
69247;BME280;56358;56.328;43.992;2022-07-29T01:49:25;100311.16;;;19.70;65.54
69247;BME280;56358;56.328;43.992;2022-07-29T01:51:34;100370.69;;;20.12;63.55
69247;BME280;56358;56.328;43.992;2022-07-29T01:53:43;100364.13;;;20.21;62.77
69247;BME280;56358;56.328;43.992;2022-07-29T01:55:48;100367.97;;;20.26;62.22
69247;BME280;56358;56.328;43.992;2022-07-29T01:57:50;100370.44;;;20.36;62.00
69247;BME280;56358;56.328;43.992;2022-07-29T01:59:52;100335.31;;;20.26;61.73
69247;BME280;56358;56.328;43.992;2022-07-29T02:01:55;100370.44;;;20.51;61.75
69247;BME280;56358;56.328;43.992;2022-07-29T02:03:59;100388.94;;;20.56;61.22
69247;BME280;56358;56.328;43.992;2022-07-29T02:06:03;100357.66;;;20.52;60.92
69247;BME280;56358;56.328;43.992;2022-07-29T02:08:05;100368.94;;;20.64;61.05
69247;BME280;56358;56.328;43.992;2022-07-29T02:10:08;100335.97;;;20.58;61.48
69247;BME280;56358;56.328;43.992;2022-07-29T02:12:11;100364.38;;;20.79;61.48
69247;BME280;56358;56.328;43.992;2022-07-29T02:14:14;100294.56;;;20.33;61.63
69247;BME280;56358;56.328;43.992;2022-07-29T02:16:17;100361.38;;;20.74;61.65
69247;BME280;56358;56.328;43.992;2022-07-29T02:18:22;100376.66;;;20.90;61.75
69247;BME280;56358;56.328;43.992;2022-07-29T02:20:25;100377.28;;;20.92;60.50
69247;BME280;56358;56.328;43.992;2022-07-29T02:22:28;100293.53;;;20.49;60.21
69247;BME280;56358;56.328;43.992;2022-07-29T02:24:30;100348.66;;;20.81;60.83
69247;BME280;56358;56.328;43.992;2022-07-29T02:26:32;100364.69;;;20.91;60.15
69247;BME280;56358;56.328;43.992;2022-07-29T02:28:33;100338.34;;;20.76;59.63
69247;BME280;56358;56.328;43.992;2022-07-29T02:30:40;100344.50;;;20.85;59.80
69247;BME280;56358;56.328;43.992;2022-07-29T02:32:43;100367.91;;;20.95;59.61
69247;BME280;56358;56.328;43.992;2022-07-29T02:34:46;100357.47;;;20.98;59.28
69247;BME280;56358;56.328;43.992;2022-07-29T02:36:49;100274.28;;;20.51;59.24
69247;BME280;56358;56.328;43.992;2022-07-29T02:38:51;100345.41;;;21.07;59.25
69247;BME280;56358;56.328;43.992;2022-07-29T02:40:53;100368.22;;;21.21;58.90
69247;BME280;56358;56.328;43.992;2022-07-29T02:42:55;100371.53;;;21.17;59.26
69247;BME280;56358;56.328;43.992;2022-07-29T02:44:56;100370.44;;;21.33;60.04
69247;BME280;56358;56.328;43.992;2022-07-29T02:49:22;100304.06;;;21.04;59.84
69247;BME280;56358;56.328;43.992;2022-07-29T02:51:31;100373.25;;;21.39;59.60
69247;BME280;56358;56.328;43.992;2022-07-29T02:53:34;100365.34;;;21.45;59.32
69247;BME280;56358;56.328;43.992;2022-07-29T02:57:46;100363.78;;;21.35;59.08
69247;BME280;56358;56.328;43.992;2022-07-29T02:59:50;100334.06;;;21.25;59.10
69247;BME280;56358;56.328;43.992;2022-07-29T03:01:52;100337.47;;;21.27;58.97
69247;BME280;56358;56.328;43.992;2022-07-29T03:03:55;100357.72;;;21.40;58.83
69247;BME280;56358;56.328;43.992;2022-07-29T03:05:59;100348.13;;;21.44;58.73
69247;BME280;56358;56.328;43.992;2022-07-29T03:08:06;100345.13;;;21.39;58.94
69247;BME280;56358;56.328;43.992;2022-07-29T03:10:07;100270.06;;;21.00;58.95
69247;BME280;56358;56.328;43.992;2022-07-29T03:12:13;100336.16;;;21.45;58.88
69247;BME280;56358;56.328;43.992;2022-07-29T03:14:15;100352.69;;;21.58;59.12
69247;BME280;56358;56.328;43.992;2022-07-29T03:16:21;100354.81;;;21.63;58.88
69247;BME280;56358;56.328;43.992;2022-07-29T03:18:24;100351.78;;;21.73;58.56
69247;BME280;56358;56.328;43.992;2022-07-29T03:20:26;100305.56;;;21.50;58.37
69247;BME280;56358;56.328;43.992;2022-07-29T03:22:27;100352.44;;;22.03;57.95
69247;BME280;56358;56.328;43.992;2022-07-29T03:24:32;100348.13;;;22.16;57.58
69247;BME280;56358;56.328;43.992;2022-07-29T03:26:33;100357.91;;;22.32;56.92
69247;BME280;56358;56.328;43.992;2022-07-29T03:28:34;100353.84;;;22.49;56.89
69247;BME280;56358;56.328;43.992;2022-07-29T03:30:35;100351.56;;;22.59;56.97
69247;BME280;56358;56.328;43.992;2022-07-29T03:32:36;100338.34;;;22.63;56.29
69247;BME280;56358;56.328;43.992;2022-07-29T03:34:37;100226.09;;;22.09;56.30
69247;BME280;56358;56.328;43.992;2022-07-29T03:36:38;100304.09;;;22.60;56.34
69247;BME280;56358;56.328;43.992;2022-07-29T03:38:39;100353.22;;;22.96;56.22
69247;BME280;56358;56.328;43.992;2022-07-29T03:40:48;100339.13;;;22.92;56.13
69247;BME280;56358;56.328;43.992;2022-07-29T03:42:51;100298.88;;;22.72;55.96
69247;BME280;56358;56.328;43.992;2022-07-29T03:44:54;100342.75;;;23.06;56.02
69247;BME280;56358;56.328;43.992;2022-07-29T03:46:58;100338.97;;;23.07;55.86
69247;BME280;56358;56.328;43.992;2022-07-29T03:49:04;100335.88;;;23.23;55.67
69247;BME280;56358;56.328;43.992;2022-07-29T03:51:05;100347.88;;;23.36;55.59
69247;BME280;56358;56.328;43.992;2022-07-29T03:53:07;100338.66;;;23.50;55.11
69247;BME280;56358;56.328;43.992;2022-07-29T03:55:09;100346.88;;;23.64;55.11
69247;BME280;56358;56.328;43.992;2022-07-29T03:57:12;100329.00;;;23.81;54.68
69247;BME280;56358;56.328;43.992;2022-07-29T03:59:15;100317.22;;;23.87;54.24
69247;BME280;56358;56.328;43.992;2022-07-29T04:01:20;100322.91;;;24.06;54.39
69247;BME280;56358;56.328;43.992;2022-07-29T04:03:22;100285.44;;;23.93;53.82
69247;BME280;56358;56.328;43.992;2022-07-29T04:05:23;100329.41;;;24.25;53.74
69247;BME280;56358;56.328;43.992;2022-07-29T04:07:24;100325.16;;;24.36;53.63
69247;BME280;56358;56.328;43.992;2022-07-29T04:09:24;100315.91;;;24.37;53.92
69247;BME280;56358;56.328;43.992;2022-07-29T04:11:25;100329.78;;;24.49;53.43
69247;BME280;56358;56.328;43.992;2022-07-29T04:13:35;100328.91;;;24.48;53.40
69247;BME280;56358;56.328;43.992;2022-07-29T04:15:35;100317.38;;;24.33;53.60
69247;BME280;56358;56.328;43.992;2022-07-29T04:17:36;100319.72;;;24.29;53.59
69247;BME280;56358;56.328;43.992;2022-07-29T04:19:43;100326.63;;;24.38;53.57
69247;BME280;56358;56.328;43.992;2022-07-29T04:21:44;100344.56;;;24.41;54.14
69247;BME280;56358;56.328;43.992;2022-07-29T04:23:45;100280.94;;;24.19;54.72
69247;BME280;56358;56.328;43.992;2022-07-29T04:25:49;100317.94;;;24.55;54.68
69247;BME280;56358;56.328;43.992;2022-07-29T04:27:50;100328.69;;;24.56;55.12
69247;BME280;56358;56.328;43.992;2022-07-29T04:30:03;100311.63;;;24.54;55.11
69247;BME280;56358;56.328;43.992;2022-07-29T04:32:04;100268.44;;;24.43;54.57
69247;BME280;56358;56.328;43.992;2022-07-29T04:34:06;100334.06;;;24.90;54.17
69247;BME280;56358;56.328;43.992;2022-07-29T04:36:07;100331.09;;;24.91;53.96
69247;BME280;56358;56.328;43.992;2022-07-29T04:38:07;100333.97;;;25.10;53.52
69247;BME280;56358;56.328;43.992;2022-07-29T04:40:08;100272.69;;;24.91;53.28
69247;BME280;56358;56.328;43.992;2022-07-29T04:42:09;100257.47;;;24.95;52.81
69247;BME280;56358;56.328;43.992;2022-07-29T04:44:10;100311.63;;;25.45;52.01
69247;BME280;56358;56.328;43.992;2022-07-29T04:46:11;100313.66;;;25.56;51.97
69247;BME280;56358;56.328;43.992;2022-07-29T04:48:12;100303.84;;;25.67;51.17
69247;BME280;56358;56.328;43.992;2022-07-29T04:50:13;100318.25;;;25.88;50.42
69247;BME280;56358;56.328;43.992;2022-07-29T04:52:13;100283.63;;;25.87;50.13
69247;BME280;56358;56.328;43.992;2022-07-29T04:54:14;100243.63;;;25.72;49.42
69247;BME280;56358;56.328;43.992;2022-07-29T04:56:15;100327.72;;;26.17;48.81
69247;BME280;56358;56.328;43.992;2022-07-29T04:58:15;100327.56;;;26.12;48.91
69247;BME280;56358;56.328;43.992;2022-07-29T05:00:16;100337.31;;;26.08;49.64
69247;BME280;56358;56.328;43.992;2022-07-29T05:02:17;100278.41;;;25.79;49.01
69247;BME280;56358;56.328;43.992;2022-07-29T05:04:18;100329.78;;;25.97;49.23
69247;BME280;56358;56.328;43.992;2022-07-29T05:06:21;100346.44;;;26.02;50.07
69247;BME280;56358;56.328;43.992;2022-07-29T05:08:22;100342.25;;;25.99;49.89
69247;BME280;56358;56.328;43.992;2022-07-29T05:10:23;100324.75;;;25.93;49.14
69247;BME280;56358;56.328;43.992;2022-07-29T05:12:24;100341.50;;;26.10;49.03
69247;BME280;56358;56.328;43.992;2022-07-29T05:14:25;100356.72;;;26.13;49.02
69247;BME280;56358;56.328;43.992;2022-07-29T05:16:26;100345.28;;;26.16;49.68
69247;BME280;56358;56.328;43.992;2022-07-29T05:18:27;100350.03;;;26.27;49.00
69247;BME280;56358;56.328;43.992;2022-07-29T05:20:28;100343.78;;;26.39;49.03
69247;BME280;56358;56.328;43.992;2022-07-29T05:22:29;100356.84;;;26.43;49.24
69247;BME280;56358;56.328;43.992;2022-07-29T05:24:30;100346.97;;;26.36;48.75
69247;BME280;56358;56.328;43.992;2022-07-29T05:26:33;100361.16;;;26.14;49.51
69247;BME280;56358;56.328;43.992;2022-07-29T05:28:34;100353.09;;;25.87;50.17
69247;BME280;56358;56.328;43.992;2022-07-29T05:30:35;100364.06;;;25.62;51.11
69247;BME280;56358;56.328;43.992;2022-07-29T05:32:36;100372.88;;;25.39;52.43
69247;BME280;56358;56.328;43.992;2022-07-29T05:34:36;100393.63;;;25.21;53.45
69247;BME280;56358;56.328;43.992;2022-07-29T05:36:37;100370.81;;;24.82;54.74
69247;BME280;56358;56.328;43.992;2022-07-29T05:38:38;100383.50;;;24.70;55.83
69247;BME280;56358;56.328;43.992;2022-07-29T05:40:38;100379.94;;;24.49;57.16
69247;BME280;56358;56.328;43.992;2022-07-29T05:42:39;100383.97;;;24.33;58.08
69247;BME280;56358;56.328;43.992;2022-07-29T05:44:40;100383.34;;;24.11;59.42
69247;BME280;56358;56.328;43.992;2022-07-29T05:46:41;100365.00;;;23.78;59.04
69247;BME280;56358;56.328;43.992;2022-07-29T05:48:41;100403.34;;;23.85;59.42
69247;BME280;56358;56.328;43.992;2022-07-29T05:50:42;100398.06;;;23.70;61.59
69247;BME280;56358;56.328;43.992;2022-07-29T05:52:43;100407.28;;;23.49;62.78
69247;BME280;56358;56.328;43.992;2022-07-29T05:54:44;100402.34;;;23.24;64.33
69247;BME280;56358;56.328;43.992;2022-07-29T05:56:45;100362.50;;;22.59;65.26
69247;BME280;56358;56.328;43.992;2022-07-29T05:58:53;100429.22;;;22.72;66.80
69247;BME280;56358;56.328;43.992;2022-07-29T06:00:54;100405.94;;;22.26;67.90
69247;BME280;56358;56.328;43.992;2022-07-29T06:02:59;100427.94;;;22.18;68.87
69247;BME280;56358;56.328;43.992;2022-07-29T06:05:00;100416.84;;;21.98;70.18
69247;BME280;56358;56.328;43.992;2022-07-29T06:07:00;100443.88;;;21.92;70.74
69247;BME280;56358;56.328;43.992;2022-07-29T06:09:02;100411.66;;;21.59;72.09
69247;BME280;56358;56.328;43.992;2022-07-29T06:11:04;100426.00;;;21.68;73.27
69247;BME280;56358;56.328;43.992;2022-07-29T06:13:05;100422.69;;;21.51;74.85
69247;BME280;56358;56.328;43.992;2022-07-29T06:15:06;100421.28;;;21.40;74.78
69247;BME280;56358;56.328;43.992;2022-07-29T06:17:07;100432.69;;;21.29;74.23
69247;BME280;56358;56.328;43.992;2022-07-29T06:19:07;100343.78;;;20.76;75.42
69247;BME280;56358;56.328;43.992;2022-07-29T06:21:09;100428.22;;;21.06;76.69
69247;BME280;56358;56.328;43.992;2022-07-29T06:23:12;100428.03;;;21.08;76.83
69247;BME280;56358;56.328;43.992;2022-07-29T06:25:13;100435.28;;;21.01;78.64
69247;BME280;56358;56.328;43.992;2022-07-29T06:27:14;100431.34;;;21.03;78.59
69247;BME280;56358;56.328;43.992;2022-07-29T06:29:14;100428.97;;;21.00;80.12
69247;BME280;56358;56.328;43.992;2022-07-29T06:31:15;100416.56;;;20.83;79.83
69247;BME280;56358;56.328;43.992;2022-07-29T06:33:19;100286.97;;;19.99;80.25
69247;BME280;56358;56.328;43.992;2022-07-29T06:35:20;100444.09;;;20.88;80.05
69247;BME280;56358;56.328;43.992;2022-07-29T06:37:21;100326.84;;;20.06;79.13
69247;BME280;56358;56.328;43.992;2022-07-29T06:39:22;100460.75;;;20.78;79.75
69247;BME280;56358;56.328;43.992;2022-07-29T06:41:23;100451.47;;;20.64;79.34
69247;BME280;56358;56.328;43.992;2022-07-29T06:43:24;100377.94;;;20.19;80.34
69247;BME280;56358;56.328;43.992;2022-07-29T06:45:24;100361.69;;;20.26;80.92
69247;BME280;56358;56.328;43.992;2022-07-29T06:47:25;100425.88;;;20.73;79.98
69247;BME280;56358;56.328;43.992;2022-07-29T06:49:26;100423.03;;;20.67;80.20
69247;BME280;56358;56.328;43.992;2022-07-29T06:51:28;100427.47;;;20.83;80.40
69247;BME280;56358;56.328;43.992;2022-07-29T06:53:29;100414.25;;;20.80;78.79
69247;BME280;56358;56.328;43.992;2022-07-29T06:55:30;100424.47;;;20.92;78.51
69247;BME280;56358;56.328;43.992;2022-07-29T06:57:31;100355.22;;;20.57;79.50
69247;BME280;56358;56.328;43.992;2022-07-29T06:59:32;100435.72;;;21.04;79.62
69247;BME280;56358;56.328;43.992;2022-07-29T07:01:32;100435.91;;;21.03;79.16
69247;BME280;56358;56.328;43.992;2022-07-29T07:03:36;100436.50;;;20.98;78.79
69247;BME280;56358;56.328;43.992;2022-07-29T07:05:37;100441.09;;;20.98;78.33
69247;BME280;56358;56.328;43.992;2022-07-29T07:07:37;100439.13;;;20.91;78.50
69247;BME280;56358;56.328;43.992;2022-07-29T07:09:38;100403.78;;;20.68;79.08
69247;BME280;56358;56.328;43.992;2022-07-29T07:11:39;100452.19;;;20.96;79.50
69247;BME280;56358;56.328;43.992;2022-07-29T07:13:39;100462.06;;;20.97;80.16
69247;BME280;56358;56.328;43.992;2022-07-29T07:15:40;100481.13;;;20.97;81.06
69247;BME280;56358;56.328;43.992;2022-07-29T07:17:41;100460.34;;;20.96;80.57
69247;BME280;56358;56.328;43.992;2022-07-29T07:19:42;100452.38;;;20.95;80.38
69247;BME280;56358;56.328;43.992;2022-07-29T07:21:42;100449.84;;;20.93;80.49
69247;BME280;56358;56.328;43.992;2022-07-29T07:23:43;100453.59;;;20.92;80.37
69247;BME280;56358;56.328;43.992;2022-07-29T07:25:44;100434.81;;;20.82;80.49
69247;BME280;56358;56.328;43.992;2022-07-29T07:27:45;100433.50;;;20.78;80.62
69247;BME280;56358;56.328;43.992;2022-07-29T07:29:46;100358.06;;;20.34;80.36
69247;BME280;56358;56.328;43.992;2022-07-29T07:31:49;100440.75;;;20.86;81.09
69247;BME280;56358;56.328;43.992;2022-07-29T07:33:49;100448.72;;;20.87;81.40
69247;BME280;56358;56.328;43.992;2022-07-29T07:35:50;100463.84;;;20.90;81.50
69247;BME280;56358;56.328;43.992;2022-07-29T07:37:51;100465.53;;;20.91;81.21
69247;BME280;56358;56.328;43.992;2022-07-29T07:39:55;100475.97;;;20.87;81.98
69247;BME280;56358;56.328;43.992;2022-07-29T07:41:55;100487.16;;;20.92;81.48
69247;BME280;56358;56.328;43.992;2022-07-29T07:43:56;100484.25;;;20.94;81.19
69247;BME280;56358;56.328;43.992;2022-07-29T07:45:57;100493.44;;;20.93;81.24
69247;BME280;56358;56.328;43.992;2022-07-29T07:47:58;100379.81;;;20.19;80.89
69247;BME280;56358;56.328;43.992;2022-07-29T07:50:03;100502.84;;;20.90;80.30
69247;BME280;56358;56.328;43.992;2022-07-29T07:52:04;100411.28;;;20.36;80.36
69247;BME280;56358;56.328;43.992;2022-07-29T07:54:05;100503.03;;;20.89;80.58
69247;BME280;56358;56.328;43.992;2022-07-29T07:56:06;100488.81;;;20.79;80.36
69247;BME280;56358;56.328;43.992;2022-07-29T07:58:07;100431.28;;;20.43;80.71
69247;BME280;56358;56.328;43.992;2022-07-29T08:00:08;100493.81;;;20.90;79.61
69247;BME280;56358;56.328;43.992;2022-07-29T08:02:09;100498.31;;;20.83;78.46
69247;BME280;56358;56.328;43.992;2022-07-29T08:04:10;100467.31;;;20.69;78.71
69247;BME280;56358;56.328;43.992;2022-07-29T08:06:11;100483.84;;;20.82;79.76
69247;BME280;56358;56.328;43.992;2022-07-29T08:08:11;100415.63;;;20.46;79.35
69247;BME280;56358;56.328;43.992;2022-07-29T08:10:14;100481.78;;;20.84;79.84
69247;BME280;56358;56.328;43.992;2022-07-29T08:12:14;100472.13;;;20.82;80.02
69247;BME280;56358;56.328;43.992;2022-07-29T08:14:15;100410.16;;;20.46;80.10
69247;BME280;56358;56.328;43.992;2022-07-29T08:16:16;100472.28;;;20.80;79.84
69247;BME280;56358;56.328;43.992;2022-07-29T08:18:19;100467.22;;;20.77;79.64
69247;BME280;56358;56.328;43.992;2022-07-29T08:20:20;100472.03;;;20.75;80.17
69247;BME280;56358;56.328;43.992;2022-07-29T08:22:21;100397.47;;;20.38;80.41
69247;BME280;56358;56.328;43.992;2022-07-29T08:24:21;100465.53;;;20.76;81.20
69247;BME280;56358;56.328;43.992;2022-07-29T08:26:42;100462.69;;;20.69;79.92
69247;BME280;56358;56.328;43.992;2022-07-29T08:28:44;100456.94;;;20.64;79.64
69247;BME280;56358;56.328;43.992;2022-07-29T08:30:46;100398.00;;;20.18;79.52
69247;BME280;56358;56.328;43.992;2022-07-29T08:32:48;100419.59;;;20.20;78.52
69247;BME280;56358;56.328;43.992;2022-07-29T08:34:49;100483.31;;;20.49;77.78
69247;BME280;56358;56.328;43.992;2022-07-29T08:36:49;100489.97;;;20.46;78.30
69247;BME280;56358;56.328;43.992;2022-07-29T08:38:50;100509.81;;;20.55;78.00
69247;BME280;56358;56.328;43.992;2022-07-29T08:40:51;100451.22;;;20.21;77.12
69247;BME280;56358;56.328;43.992;2022-07-29T08:42:52;100505.19;;;20.55;76.97
69247;BME280;56358;56.328;43.992;2022-07-29T08:44:53;100497.41;;;20.52;77.15
69247;BME280;56358;56.328;43.992;2022-07-29T08:46:55;100495.53;;;20.53;77.03
69247;BME280;56358;56.328;43.992;2022-07-29T08:48:55;100400.06;;;20.01;76.46
69247;BME280;56358;56.328;43.992;2022-07-29T08:52:57;100477.47;;;20.75;76.88
69247;BME280;56358;56.328;43.992;2022-07-29T08:54:58;100447.22;;;20.70;77.73
69247;BME280;56358;56.328;43.992;2022-07-29T08:56:59;100452.84;;;20.83;79.07
69247;BME280;56358;56.328;43.992;2022-07-29T08:59:04;100381.06;;;20.46;78.39
69247;BME280;56358;56.328;43.992;2022-07-29T09:01:08;100442.59;;;20.85;78.04
69247;BME280;56358;56.328;43.992;2022-07-29T09:03:15;100450.50;;;20.95;78.32
69247;BME280;56358;56.328;43.992;2022-07-29T09:05:16;100437.13;;;21.00;78.74
69247;BME280;56358;56.328;43.992;2022-07-29T09:07:17;100426.16;;;20.93;77.66
69247;BME280;56358;56.328;43.992;2022-07-29T09:09:19;100354.41;;;20.56;77.94
69247;BME280;56358;56.328;43.992;2022-07-29T09:11:20;100400.41;;;20.96;77.53
69247;BME280;56358;56.328;43.992;2022-07-29T09:13:22;100396.94;;;21.02;78.37
69247;BME280;56358;56.328;43.992;2022-07-29T09:15:22;100406.88;;;21.10;78.80
69247;BME280;56358;56.328;43.992;2022-07-29T09:17:39;100397.41;;;21.06;77.93
69247;BME280;56358;56.328;43.992;2022-07-29T09:19:40;100385.94;;;20.96;78.55
69247;BME280;56358;56.328;43.992;2022-07-29T09:21:41;100399.47;;;21.04;78.54
69247;BME280;56358;56.328;43.992;2022-07-29T09:24:07;100401.25;;;20.97;77.92
69247;BME280;56358;56.328;43.992;2022-07-29T09:26:08;100426.31;;;21.07;78.20
69247;BME280;56358;56.328;43.992;2022-07-29T09:28:11;100419.38;;;21.04;77.48
69247;BME280;56358;56.328;43.992;2022-07-29T09:30:14;100370.84;;;20.78;78.08
69247;BME280;56358;56.328;43.992;2022-07-29T09:32:14;100430.28;;;21.19;77.12
69247;BME280;56358;56.328;43.992;2022-07-29T09:34:20;100416.38;;;21.14;77.08
69247;BME280;56358;56.328;43.992;2022-07-29T09:36:23;100443.69;;;21.36;77.26
69247;BME280;56358;56.328;43.992;2022-07-29T09:38:24;100446.88;;;21.39;76.89
69247;BME280;56358;56.328;43.992;2022-07-29T09:40:27;100423.41;;;21.23;75.94
69247;BME280;56358;56.328;43.992;2022-07-29T09:42:29;100451.94;;;21.42;75.85
69247;BME280;56358;56.328;43.992;2022-07-29T09:44:48;100458.81;;;21.53;75.69
69247;BME280;56358;56.328;43.992;2022-07-29T09:47:03;100453.22;;;21.62;75.52
69247;BME280;56358;56.328;43.992;2022-07-29T09:49:12;100451.59;;;21.67;75.83
69247;BME280;56358;56.328;43.992;2022-07-29T09:51:21;100387.00;;;21.31;75.43
69247;BME280;56358;56.328;43.992;2022-07-29T09:55:30;100451.88;;;21.72;73.87
69247;BME280;56358;56.328;43.992;2022-07-29T09:57:31;100464.56;;;21.80;73.45
69247;BME280;56358;56.328;43.992;2022-07-29T09:59:33;100463.38;;;21.89;73.34
69247;BME280;56358;56.328;43.992;2022-07-29T10:01:33;100470.13;;;21.93;73.02
69247;BME280;56358;56.328;43.992;2022-07-29T10:03:52;100462.22;;;21.99;72.28
69247;BME280;56358;56.328;43.992;2022-07-29T10:06:06;100441.75;;;21.88;71.36
69247;BME280;56358;56.328;43.992;2022-07-29T10:08:08;100460.84;;;22.09;72.37
69247;BME280;56358;56.328;43.992;2022-07-29T10:10:10;100462.34;;;22.12;72.83
69247;BME280;56358;56.328;43.992;2022-07-29T10:12:15;100463.56;;;22.09;72.31
69247;BME280;56358;56.328;43.992;2022-07-29T10:14:16;100469.69;;;22.12;70.96
69247;BME280;56358;56.328;43.992;2022-07-29T10:16:17;100463.78;;;22.08;71.01
69247;BME280;56358;56.328;43.992;2022-07-29T10:18:18;100462.03;;;22.00;71.43
69247;BME280;56358;56.328;43.992;2022-07-29T10:20:21;100473.66;;;22.09;71.20
69247;BME280;56358;56.328;43.992;2022-07-29T10:22:22;100497.06;;;22.18;70.86
69247;BME280;56358;56.328;43.992;2022-07-29T10:24:28;100483.72;;;22.08;71.12
69247;BME280;56358;56.328;43.992;2022-07-29T10:26:30;100492.56;;;22.10;70.89
69247;BME280;56358;56.328;43.992;2022-07-29T10:28:31;100468.66;;;21.91;71.05
69247;BME280;56358;56.328;43.992;2022-07-29T10:30:32;100497.63;;;22.14;70.95
69247;BME280;56358;56.328;43.992;2022-07-29T10:34:36;100512.53;;;22.11;71.53
69247;BME280;56358;56.328;43.992;2022-07-29T10:36:59;100518.63;;;22.13;70.68
69247;BME280;56358;56.328;43.992;2022-07-29T10:41:32;100541.78;;;22.17;71.56
69247;BME280;56358;56.328;43.992;2022-07-29T10:43:41;100526.38;;;22.09;71.28
69247;BME280;56358;56.328;43.992;2022-07-29T10:45:45;100536.25;;;22.10;71.10
69247;BME280;56358;56.328;43.992;2022-07-29T10:47:47;100536.69;;;22.14;71.35
69247;BME280;56358;56.328;43.992;2022-07-29T10:49:59;100533.31;;;22.12;72.26
69247;BME280;56358;56.328;43.992;2022-07-29T10:52:07;100527.59;;;22.07;71.57
69247;BME280;56358;56.328;43.992;2022-07-29T10:54:09;100537.94;;;22.12;73.88
69247;BME280;56358;56.328;43.992;2022-07-29T10:56:30;100545.06;;;22.13;75.65